createdAt,value
2022-12-18T05:15:44.875Z,101470.09
2022-12-18T05:18:11.652Z,101472.84
2022-12-18T05:20:38.160Z,101471.44
2022-12-18T05:23:04.764Z,101477.47
2022-12-18T05:25:31.469Z,101477.72
2022-12-18T05:27:57.983Z,101469.63
2022-12-18T05:30:24.608Z,101471.44
2022-12-18T05:32:51.191Z,101475.06
2022-12-18T05:35:17.764Z,101475.47
2022-12-18T05:37:44.388Z,101472.91
2022-12-18T05:40:11.409Z,101459.09
2022-12-18T05:42:38.675Z,101462.78
2022-12-18T05:45:06.221Z,101464.44
2022-12-18T05:47:32.726Z,101462.09
2022-12-18T05:49:59.539Z,101459.09
2022-12-18T05:52:26.272Z,101457.47
2022-12-18T05:54:52.982Z,101462.19
2022-12-18T05:57:19.710Z,101459.53
2022-12-18T05:59:46.245Z,101459.53
2022-12-18T06:02:12.923Z,101462.84
2022-12-18T06:04:39.643Z,101470.50
2022-12-18T06:07:08.745Z,101467.38
2022-12-18T06:09:35.285Z,101473.56
2022-12-18T06:12:03.040Z,101472.84
2022-12-18T06:14:29.875Z,101471.16
2022-12-18T06:16:56.488Z,101480.41
2022-12-18T06:19:23.157Z,101480.28
2022-12-18T06:21:50.298Z,101485.50
2022-12-18T06:24:17.000Z,101482.81
2022-12-18T06:26:43.961Z,101485.59
2022-12-18T06:29:10.527Z,101493.88
2022-12-18T06:31:37.241Z,101492.06
2022-12-18T06:34:08.283Z,101495.31
2022-12-18T06:36:35.025Z,101495.03
2022-12-18T06:39:02.006Z,101493.66
2022-12-18T06:41:28.774Z,101496.56
2022-12-18T06:43:59.552Z,101499.44
2022-12-18T06:46:28.681Z,101504.81
2022-12-18T06:48:55.253Z,101508.47
2022-12-18T06:51:23.401Z,101509.56
2022-12-18T06:53:50.647Z,101506.03
2022-12-18T06:56:17.378Z,101509.16
2022-12-18T06:58:44.080Z,101514.00
2022-12-18T07:01:12.681Z,101517.31
2022-12-18T07:03:43.802Z,101508.38
2022-12-18T07:06:19.599Z,101518.56
2022-12-18T07:08:47.706Z,101513.28
2022-12-18T07:11:15.023Z,101520.00
2022-12-18T07:13:42.105Z,101516.69
2022-12-18T07:16:23.921Z,101520.66
2022-12-18T07:18:51.739Z,101517.44
2022-12-18T07:21:20.648Z,101518.56
2022-12-18T07:23:49.352Z,101515.81
2022-12-18T07:26:18.629Z,101514.19
2022-12-18T07:28:46.380Z,101498.66
2022-12-18T07:31:17.236Z,101507.41
2022-12-18T07:33:46.070Z,101507.81
2022-12-18T07:36:13.374Z,101500.50
2022-12-18T07:38:41.450Z,101509.00
2022-12-18T07:41:10.903Z,101513.00
2022-12-18T07:43:38.852Z,101512.78
2022-12-18T07:46:07.005Z,101517.31
2022-12-18T07:48:33.941Z,101511.47
2022-12-18T07:51:01.595Z,101518.25
2022-12-18T07:53:28.735Z,101510.78
2022-12-18T07:56:25.969Z,101513.53
2022-12-18T07:58:48.530Z,101509.91
2022-12-18T08:01:16.541Z,101517.22
2022-12-18T08:04:09.442Z,101512.81
2022-12-18T08:06:37.087Z,101515.38
2022-12-18T08:09:03.719Z,101524.25
2022-12-18T08:11:30.957Z,101524.53
2022-12-18T08:13:58.735Z,101521.91
2022-12-18T08:16:26.136Z,101523.69
2022-12-18T08:18:54.786Z,101525.72
2022-12-18T08:21:27.962Z,101529.06
2022-12-18T08:23:57.415Z,101527.31
2022-12-18T08:26:26.400Z,101519.19
2022-12-18T08:28:55.273Z,101527.50
2022-12-18T08:31:22.285Z,101523.53
2022-12-18T08:33:53.154Z,101523.50
2022-12-18T08:36:21.629Z,101515.44
2022-12-18T08:38:48.517Z,101517.66
2022-12-18T08:41:16.710Z,101510.22
2022-12-18T08:44:01.973Z,101513.78
2022-12-18T08:46:35.637Z,101509.78
2022-12-18T08:49:02.227Z,101507.78
2022-12-18T08:51:29.730Z,101509.31
2022-12-18T08:53:56.228Z,101499.47
2022-12-18T08:56:23.057Z,101497.22
2022-12-18T08:58:52.954Z,101500.19
2022-12-18T09:01:20.124Z,101499.22
2022-12-18T09:03:46.827Z,101499.75
2022-12-18T09:06:21.765Z,101501.13
2022-12-18T09:08:48.557Z,101499.44
2022-12-18T09:11:29.432Z,101506.81
2022-12-18T09:13:58.135Z,101514.31
2022-12-18T09:16:31.738Z,101516.94
2022-12-18T09:19:00.820Z,101521.88
2022-12-18T09:21:52.006Z,101522.28
2022-12-18T09:27:05.676Z,101525.53
2022-12-18T09:29:38.744Z,101516.41
2022-12-18T09:35:10.337Z,101530.13
2022-12-18T09:37:37.117Z,101531.22
2022-12-18T09:40:04.833Z,101532.38
2022-12-18T09:42:34.678Z,101533.19
2022-12-18T09:45:02.133Z,101530.81
2022-12-18T09:47:36.045Z,101530.50
2022-12-18T09:50:06.875Z,101530.34
2022-12-18T09:52:50.379Z,101529.59
2022-12-18T09:55:37.475Z,101531.06
2022-12-18T09:58:21.726Z,101525.97
2022-12-18T10:00:48.400Z,101533.19
2022-12-18T10:03:16.749Z,101535.44
2022-12-18T10:06:03.597Z,101530.56
2022-12-18T10:08:50.072Z,101538.50
2022-12-18T10:11:50.032Z,101536.88
2022-12-18T10:14:35.215Z,101534.94
2022-12-18T10:17:43.306Z,101520.00
2022-12-18T10:20:29.441Z,101511.69
2022-12-18T10:23:09.390Z,101511.03
2022-12-18T10:25:46.349Z,101504.28
2022-12-18T10:28:19.062Z,101502.16
2022-12-18T10:30:45.670Z,101498.56
2022-12-18T10:33:17.998Z,101503.31
2022-12-18T10:35:45.879Z,101506.78
2022-12-18T10:38:49.141Z,101520.03
2022-12-18T10:41:27.383Z,101514.41
2022-12-18T10:44:23.312Z,101520.25
2022-12-18T10:47:10.143Z,101518.03
2022-12-18T10:49:49.401Z,101521.53
2022-12-18T10:52:19.993Z,101525.00
2022-12-18T10:55:04.832Z,101508.47
2022-12-18T10:57:38.318Z,101503.38
2022-12-18T11:00:35.380Z,101510.28
2022-12-18T11:03:44.736Z,101524.50
2022-12-18T11:06:14.838Z,101519.50
2022-12-18T11:08:44.613Z,101507.72
2022-12-18T11:11:38.753Z,101504.63
2022-12-18T11:14:21.102Z,101510.22
2022-12-18T11:17:23.660Z,101513.38
2022-12-18T11:19:42.062Z,101513.34
2022-12-18T11:22:26.097Z,101516.47
2022-12-18T11:25:30.982Z,101504.66
2022-12-18T11:27:55.602Z,101505.38
2022-12-18T11:30:25.695Z,101505.16
2022-12-18T11:32:56.955Z,101507.28
2022-12-18T11:35:26.559Z,101499.69
2022-12-18T11:38:03.922Z,101489.72
2022-12-18T11:40:41.147Z,101493.16
2022-12-18T11:43:16.095Z,101498.66
2022-12-18T11:46:06.334Z,101499.66
2022-12-18T11:48:47.316Z,101492.81
2022-12-18T11:51:29.023Z,101497.09
2022-12-18T11:53:56.532Z,101488.22
2022-12-18T11:56:37.349Z,101493.41
2022-12-18T11:59:36.830Z,101486.13
2022-12-18T12:02:22.539Z,101494.75
2022-12-18T12:05:00.294Z,101486.63
2022-12-18T12:07:57.534Z,101490.88
2022-12-18T12:10:27.152Z,101495.41
2022-12-18T12:13:20.700Z,101485.41
2022-12-18T12:16:01.337Z,101485.19
2022-12-18T12:18:49.925Z,101482.38
2022-12-18T12:21:57.774Z,101486.34
2022-12-18T12:24:36.866Z,101495.91
2022-12-18T12:27:15.865Z,101493.41
2022-12-18T12:30:28.177Z,101478.44
2022-12-18T12:33:01.598Z,101473.78
2022-12-18T12:36:04.309Z,101463.97
2022-12-18T12:38:56.455Z,101472.72
2022-12-18T12:41:45.714Z,101468.38
2022-12-18T12:44:31.738Z,101456.97
2022-12-18T12:47:08.039Z,101452.78
2022-12-18T12:49:40.315Z,101457.00
2022-12-18T12:52:13.699Z,101452.56
2022-12-18T12:54:40.794Z,101448.22
2022-12-18T12:57:17.482Z,101450.88
2022-12-18T12:59:59.938Z,101454.66
2022-12-18T13:02:33.582Z,101452.09
2022-12-18T13:05:26.094Z,101447.56
2022-12-18T13:08:10.928Z,101452.72
2022-12-18T13:10:42.121Z,101444.06
2022-12-18T13:13:17.160Z,101442.19
2022-12-18T13:16:08.291Z,101432.72
2022-12-18T13:18:36.207Z,101432.06
2022-12-18T13:21:19.110Z,101434.00
2022-12-18T13:23:46.194Z,101435.94
2022-12-18T13:26:16.967Z,101447.19
2022-12-18T13:28:49.449Z,101434.31
2022-12-18T13:31:40.774Z,101438.94
2022-12-18T13:34:26.690Z,101416.78
2022-12-18T13:37:17.672Z,101416.84
2022-12-18T13:39:44.356Z,101422.91
2022-12-18T13:42:30.926Z,101415.00
2022-12-18T13:44:57.604Z,101410.47
2022-12-18T13:47:33.336Z,101413.56
2022-12-18T13:50:00.928Z,101415.91
2022-12-18T13:52:38.308Z,101406.47
2022-12-18T13:55:08.581Z,101401.78
2022-12-18T13:57:41.741Z,101398.88
2022-12-18T14:00:25.755Z,101395.56
2022-12-18T14:02:53.442Z,101400.06
2022-12-18T14:05:33.234Z,101398.25
2022-12-18T14:08:11.178Z,101399.25
2022-12-18T14:10:48.448Z,101401.34
2022-12-18T14:13:28.899Z,101400.06
2022-12-18T14:15:57.319Z,101399.50
2022-12-18T14:18:33.780Z,101398.84
2022-12-18T14:21:02.907Z,101403.59
2022-12-18T14:23:37.076Z,101411.69
2022-12-18T14:26:24.397Z,101408.78
2022-12-18T14:28:51.173Z,101408.22
2022-12-18T14:31:26.413Z,101408.03
2022-12-18T14:33:54.077Z,101390.59
2022-12-18T14:36:24.349Z,101398.69
2022-12-18T14:38:59.676Z,101405.47
2022-12-18T14:41:27.398Z,101401.44
2022-12-18T14:43:55.460Z,101400.84
2022-12-18T14:46:36.587Z,101404.81
2022-12-18T14:49:31.340Z,101396.16
2022-12-18T14:52:32.310Z,101393.03
2022-12-18T14:54:59.197Z,101391.56
2022-12-18T14:57:31.045Z,101396.47
2022-12-18T15:00:15.703Z,101388.59
2022-12-18T15:02:43.601Z,101395.81
2022-12-18T15:05:13.490Z,101385.78
2022-12-18T15:07:55.245Z,101382.13
2022-12-18T15:10:27.183Z,101381.69
2022-12-18T15:12:56.631Z,101386.44
2022-12-18T15:15:38.622Z,101376.97
2022-12-18T15:18:14.084Z,101376.56
2022-12-18T15:20:53.315Z,101374.97
2022-12-18T15:23:26.886Z,101373.03
2022-12-18T15:25:59.664Z,101383.09
2022-12-18T15:28:48.458Z,101377.88
2022-12-18T15:31:17.031Z,101368.28
2022-12-18T15:34:01.139Z,101365.81
2022-12-18T15:36:27.707Z,101361.72
2022-12-18T15:39:04.834Z,101357.47
2022-12-18T15:41:36.219Z,101349.97
2022-12-18T15:44:04.622Z,101353.19
2022-12-18T15:46:31.942Z,101353.09
2022-12-18T15:49:02.387Z,101353.50
2022-12-18T15:51:32.627Z,101357.03
2022-12-18T15:54:01.730Z,101343.63
2022-12-18T15:56:47.031Z,101350.72
2022-12-18T15:59:16.898Z,101345.25
2022-12-18T16:01:47.029Z,101350.63
2022-12-18T16:04:15.364Z,101348.06
2022-12-18T16:07:12.800Z,101352.38
2022-12-18T16:09:29.488Z,101352.88
2022-12-18T16:11:56.094Z,101348.59
2022-12-18T16:14:28.099Z,101348.06
2022-12-18T16:17:01.186Z,101345.31
2022-12-18T16:19:28.466Z,101335.03
2022-12-18T16:21:56.942Z,101340.38
2022-12-18T16:24:26.491Z,101332.28
2022-12-18T16:26:54.577Z,101327.16
2022-12-18T16:29:28.531Z,101320.03
2022-12-18T16:31:56.849Z,101322.66
2022-12-18T16:34:29.274Z,101322.75
2022-12-18T16:37:05.769Z,101322.81
2022-12-18T16:39:37.503Z,101324.22
2022-12-18T16:42:17.114Z,101321.53
2022-12-18T16:44:48.685Z,101322.69
2022-12-18T16:47:17.040Z,101318.97
2022-12-18T16:49:46.546Z,101330.19
2022-12-18T16:52:13.400Z,101323.84
2022-12-18T16:54:41.273Z,101321.38
2022-12-18T16:57:10.972Z,101316.53
2022-12-18T16:59:38.319Z,101311.38
2022-12-18T17:02:09.766Z,101318.41
2022-12-18T17:04:38.030Z,101314.47
2022-12-18T17:07:05.657Z,101317.63
2022-12-18T17:09:32.650Z,101311.69
2022-12-18T17:12:03.640Z,101308.97
2022-12-18T17:17:23.618Z,101307.94
2022-12-18T17:19:52.583Z,101307.72
2022-12-18T17:22:19.943Z,101311.94
2022-12-18T17:24:47.674Z,101315.03
2022-12-18T17:27:15.073Z,101301.44
2022-12-18T17:29:47.432Z,101307.22
2022-12-18T17:32:14.938Z,101297.06
2022-12-18T17:34:42.688Z,101295.41
2022-12-18T17:37:13.229Z,101293.00
2022-12-18T17:39:42.751Z,101295.69
2022-12-18T17:42:15.186Z,101296.66
2022-12-18T17:44:42.895Z,101297.81
2022-12-18T17:47:12.140Z,101288.72
2022-12-18T17:49:38.811Z,101289.00
2022-12-18T17:52:08.112Z,101294.38
2022-12-18T17:54:38.817Z,101299.72
2022-12-18T17:57:09.683Z,101298.34
2022-12-18T17:59:36.414Z,101304.03
2022-12-18T18:02:24.233Z,101306.59
2022-12-18T18:05:03.399Z,101300.25
2022-12-18T18:14:52.293Z,101297.88
2022-12-18T18:17:19.323Z,101298.63
2022-12-18T18:19:45.946Z,101292.63
2022-12-18T18:22:17.248Z,101294.38
2022-12-18T18:24:46.827Z,101290.25
2022-12-18T18:27:13.615Z,101287.00
2022-12-18T18:29:40.495Z,101293.63
2022-12-18T18:32:24.650Z,101291.56
2022-12-18T18:34:52.245Z,101287.44
2022-12-18T18:37:19.839Z,101284.06
2022-12-18T18:39:46.381Z,101279.81
2022-12-18T18:42:13.072Z,101280.66
2022-12-18T18:44:42.293Z,101285.81
2022-12-18T18:47:13.034Z,101277.16
2022-12-18T18:49:45.970Z,101269.44
2022-12-18T18:55:20.505Z,101269.28
2022-12-18T18:57:54.768Z,101263.19
2022-12-18T19:33:51.289Z,101234.47
2022-12-18T19:36:23.243Z,101232.66
2022-12-18T19:38:51.901Z,101234.94
2022-12-18T19:41:19.905Z,101229.94
2022-12-18T19:43:48.204Z,101222.28
2022-12-18T19:46:19.452Z,101226.09
2022-12-18T19:48:51.083Z,101225.72
2022-12-18T19:51:20.906Z,101226.63
2022-12-18T19:53:48.235Z,101220.13
2022-12-18T19:56:17.256Z,101215.09
2022-12-18T19:58:45.141Z,101209.28
2022-12-18T20:01:17.101Z,101213.91
2022-12-18T20:03:51.596Z,101212.50
2022-12-18T20:06:29.389Z,101214.00
2022-12-18T20:09:00.320Z,101211.66
2022-12-18T20:11:28.863Z,101212.59
2022-12-18T20:13:56.253Z,101217.97
2022-12-18T20:16:23.266Z,101217.56
2022-12-18T20:18:50.302Z,101217.00
2022-12-18T20:21:18.004Z,101217.66
2022-12-18T20:23:47.337Z,101218.00
2022-12-18T20:26:17.036Z,101210.97
2022-12-18T20:28:47.040Z,101215.25
2022-12-18T20:31:14.345Z,101215.66
2022-12-18T20:33:52.059Z,101212.81
2022-12-18T20:39:06.581Z,101210.97
2022-12-18T20:41:38.341Z,101210.28
2022-12-18T20:44:21.674Z,101210.97
2022-12-18T20:46:55.089Z,101208.41
2022-12-18T20:49:23.262Z,101206.59
2022-12-18T20:51:53.387Z,101194.78
2022-12-18T20:54:22.278Z,101202.19
2022-12-18T20:56:50.803Z,101196.47
2022-12-18T20:59:18.437Z,101200.78
2022-12-18T21:01:49.483Z,101200.28
2022-12-18T21:04:20.752Z,101199.09
2022-12-18T21:06:55.822Z,101197.22
2022-12-18T21:09:31.591Z,101198.78
2022-12-18T21:12:40.568Z,101208.19
2022-12-18T21:15:51.025Z,101199.94
2022-12-18T21:18:18.222Z,101194.91
2022-12-18T21:21:27.182Z,101202.63
2022-12-18T21:24:00.374Z,101198.03
2022-12-18T21:26:51.536Z,101206.75
2022-12-18T21:29:24.798Z,101207.34
2022-12-18T21:31:57.578Z,101216.25
2022-12-18T21:34:28.012Z,101219.41
2022-12-18T21:36:57.359Z,101221.31
2022-12-18T21:39:25.753Z,101216.16
2022-12-18T21:42:11.688Z,101201.03
2022-12-18T21:44:41.536Z,101197.84
2022-12-18T21:47:22.933Z,101208.28
2022-12-18T21:49:52.695Z,101217.16
2022-12-18T21:52:20.115Z,101217.88
2022-12-18T21:54:50.286Z,101211.91
2022-12-18T21:57:18.582Z,101203.81
2022-12-18T21:59:45.135Z,101209.16
2022-12-18T22:02:15.753Z,101207.66
2022-12-18T22:04:43.874Z,101197.28
2022-12-18T22:07:10.964Z,101204.44
2022-12-18T22:09:38.149Z,101201.03
2022-12-18T22:12:05.296Z,101197.38
2022-12-18T22:14:31.931Z,101196.69
2022-12-18T22:16:58.744Z,101192.75
2022-12-18T22:19:29.017Z,101192.94
2022-12-18T22:21:58.966Z,101184.44
2022-12-18T22:24:29.242Z,101193.25
2022-12-18T22:27:01.721Z,101188.94
2022-12-18T22:29:50.491Z,101195.75
2022-12-18T22:32:21.442Z,101190.56
2022-12-18T22:35:03.082Z,101190.75
2022-12-18T22:37:33.032Z,101185.66
2022-12-18T22:40:03.150Z,101185.78
2022-12-18T22:42:34.193Z,101185.78
2022-12-18T22:45:01.227Z,101181.00
2022-12-18T22:47:30.351Z,101185.44
2022-12-18T22:49:58.315Z,101181.25
2022-12-18T22:52:25.793Z,101179.63
2022-12-18T22:54:54.187Z,101175.41
2022-12-18T22:57:27.591Z,101178.09
2022-12-18T22:59:54.535Z,101173.09
